createdAt,value
2022-09-30T00:01:33.882Z,10.38
2022-09-30T00:04:01.313Z,8.63
2022-09-30T00:06:31.085Z,7.75
2022-09-30T00:08:58.425Z,8.90
2022-09-30T00:11:34.835Z,8.77
2022-09-30T00:14:02.865Z,7.32
2022-09-30T00:16:34.824Z,7.57
2022-09-30T00:19:03.804Z,8.68
2022-09-30T00:21:33.923Z,9.40
2022-09-30T00:24:01.874Z,7.95
2022-09-30T00:26:29.479Z,9.23
2022-09-30T00:28:58.431Z,8.45
2022-09-30T00:31:28.566Z,8.02
2022-09-30T00:34:09.755Z,8.43
2022-09-30T00:36:48.581Z,9.45
2022-09-30T00:39:27.710Z,6.50
2022-09-30T00:42:07.244Z,7.30
2022-09-30T00:44:50.651Z,8.07
2022-09-30T00:47:40.861Z,6.95
2022-09-30T00:50:17.018Z,6.97
2022-09-30T00:52:51.774Z,5.90
2022-09-30T00:55:27.947Z,7.40
2022-09-30T00:57:55.624Z,7.40
2022-09-30T01:00:22.549Z,6.55
2022-09-30T01:02:50.035Z,8.38
2022-09-30T01:05:17.185Z,7.22
2022-09-30T01:07:44.178Z,5.85
2022-09-30T01:10:10.967Z,6.88
2022-09-30T01:12:37.845Z,6.82
2022-09-30T01:15:08.231Z,7.10
2022-09-30T01:18:08.178Z,7.25
2022-09-30T01:21:02.908Z,6.90
2022-09-30T01:23:45.718Z,7.68
2022-09-30T01:26:34.408Z,7.88
2022-09-30T01:29:22.118Z,6.20
2022-09-30T01:32:03.977Z,8.13
2022-09-30T01:35:15.466Z,6.80
2022-09-30T01:37:52.747Z,7.00
2022-09-30T01:40:24.605Z,5.75
2022-09-30T01:43:14.174Z,6.28
2022-09-30T01:45:56.379Z,6.93
2022-09-30T01:48:36.355Z,6.88
2022-09-30T01:51:12.417Z,8.48
2022-09-30T01:54:23.351Z,7.78
2022-09-30T01:56:54.752Z,6.47
2022-09-30T01:59:26.538Z,8.32
2022-09-30T02:01:58.488Z,8.38
2022-09-30T02:04:42.533Z,7.20
2022-09-30T02:07:23.202Z,5.80
2022-09-30T02:09:58.856Z,6.40
2022-09-30T02:12:30.368Z,6.45
2022-09-30T02:15:06.815Z,7.63
2022-09-30T02:17:43.213Z,8.43
2022-09-30T02:20:16.403Z,10.45
2022-09-30T02:22:51.133Z,7.40
2022-09-30T02:25:28.266Z,6.90
2022-09-30T02:28:03.161Z,6.63
2022-09-30T02:30:30.479Z,6.30
2022-09-30T02:33:02.128Z,7.03
2022-09-30T02:35:34.580Z,5.78
2022-09-30T02:38:21.453Z,5.97
2022-09-30T02:40:57.181Z,7.50
2022-09-30T02:43:25.134Z,6.18
2022-09-30T02:46:06.465Z,6.72
2022-09-30T02:48:36.103Z,7.97
2022-09-30T02:51:24.402Z,5.80
2022-09-30T02:54:22.556Z,7.63
2022-09-30T02:57:19.398Z,9.95
2022-09-30T02:59:51.430Z,6.90
2022-09-30T03:02:19.176Z,7.82
2022-09-30T03:04:47.624Z,6.60
2022-09-30T03:07:15.219Z,7.35
2022-09-30T03:09:41.992Z,7.78
2022-09-30T03:12:12.859Z,7.53
2022-09-30T03:15:01.456Z,5.60
2022-09-30T03:18:01.657Z,6.00
2022-09-30T03:21:12.752Z,8.60
2022-09-30T03:24:05.064Z,7.43
2022-09-30T03:27:12.628Z,7.72
2022-09-30T03:29:46.577Z,8.68
2022-09-30T03:32:45.542Z,7.40
2022-09-30T03:35:38.538Z,5.50
2022-09-30T03:38:38.959Z,4.55
2022-09-30T03:41:12.019Z,7.32
2022-09-30T03:44:12.496Z,5.80
2022-09-30T03:46:44.153Z,7.20
2022-09-30T03:49:16.145Z,5.75
2022-09-30T03:51:42.949Z,8.35
2022-09-30T03:54:12.220Z,6.60
2022-09-30T03:56:43.426Z,5.95
2022-09-30T03:59:21.878Z,8.93
2022-09-30T04:01:48.811Z,8.50
2022-09-30T04:04:18.094Z,7.15
2022-09-30T04:06:44.955Z,8.27
2022-09-30T04:09:11.707Z,11.35
2022-09-30T04:11:38.431Z,9.25
2022-09-30T04:14:07.546Z,12.20
2022-09-30T04:16:34.755Z,9.88
2022-09-30T04:19:01.697Z,7.88
2022-09-30T04:21:28.878Z,7.82
2022-09-30T04:23:55.605Z,10.27
2022-09-30T04:26:23.008Z,8.35
2022-09-30T04:28:51.910Z,8.48
2022-09-30T04:31:21.322Z,11.93
2022-09-30T04:33:48.200Z,10.18
2022-09-30T04:36:15.039Z,10.88
2022-09-30T04:38:41.926Z,9.85
2022-09-30T04:41:16.199Z,9.30
2022-09-30T04:43:46.756Z,11.93
2022-09-30T04:46:18.498Z,9.90
2022-09-30T04:51:16.533Z,13.63
2022-09-30T04:53:43.643Z,13.35
2022-09-30T04:56:10.749Z,11.77
2022-09-30T04:58:38.206Z,6.68
2022-09-30T05:01:09.282Z,6.57
2022-09-30T05:03:36.976Z,4.47
2022-09-30T05:06:05.343Z,5.82
2022-09-30T05:08:33.788Z,7.50
2022-09-30T05:11:09.521Z,7.05
2022-09-30T05:13:41.044Z,8.73
2022-09-30T05:16:09.482Z,8.57
2022-09-30T05:18:37.119Z,8.18
2022-09-30T05:21:04.512Z,9.80
2022-09-30T05:23:32.903Z,11.77
2022-09-30T05:26:03.850Z,14.10
2022-09-30T05:28:33.021Z,12.68
2022-09-30T05:31:03.137Z,11.77
2022-09-30T05:33:30.763Z,12.77
2022-09-30T05:36:07.485Z,15.23
2022-09-30T05:38:34.925Z,15.40
2022-09-30T05:41:11.265Z,16.63
2022-09-30T05:43:45.339Z,17.05
2022-09-30T05:46:14.414Z,18.75
2022-09-30T05:48:41.181Z,17.70
2022-09-30T05:51:08.058Z,15.05
2022-09-30T05:53:39.683Z,16.63
2022-09-30T05:56:09.584Z,15.30
2022-09-30T05:58:37.780Z,15.57
2022-09-30T06:01:13.090Z,17.15
2022-09-30T06:03:40.811Z,21.05
2022-09-30T06:06:08.268Z,21.55
2022-09-30T06:08:35.113Z,19.08
2022-09-30T06:11:11.016Z,20.70
2022-09-30T06:13:37.955Z,19.05
2022-09-30T06:16:08.028Z,18.35
2022-09-30T06:18:35.310Z,20.90
2022-09-30T06:21:04.572Z,18.27
2022-09-30T06:23:35.109Z,20.23
2022-09-30T06:26:04.203Z,20.70
2022-09-30T06:28:35.815Z,21.70
2022-09-30T06:31:04.057Z,21.30
2022-09-30T06:33:32.080Z,20.55
2022-09-30T06:36:02.296Z,19.88
2022-09-30T06:38:31.072Z,21.35
2022-09-30T06:41:00.100Z,17.75
2022-09-30T06:43:26.879Z,19.05
2022-09-30T06:45:59.508Z,18.17
2022-09-30T06:48:37.769Z,19.20
2022-09-30T06:51:07.705Z,18.73
2022-09-30T06:53:35.586Z,17.52
2022-09-30T06:56:02.522Z,20.90
2022-09-30T06:58:29.361Z,18.10
2022-09-30T07:01:05.621Z,18.88
2022-09-30T07:03:34.882Z,19.30
2022-09-30T07:06:05.828Z,17.20
2022-09-30T07:08:34.561Z,19.80
2022-09-30T07:11:04.277Z,18.38
2022-09-30T07:13:31.397Z,19.23
2022-09-30T07:15:58.450Z,17.13
2022-09-30T07:18:31.675Z,16.50
2022-09-30T07:20:58.446Z,22.35
2022-09-30T07:23:27.454Z,17.70
2022-09-30T07:25:57.326Z,19.25
2022-09-30T07:28:28.180Z,23.50
2022-09-30T07:31:13.775Z,18.67
2022-09-30T07:33:46.162Z,19.23
2022-09-30T07:36:15.885Z,20.65
2022-09-30T07:38:43.169Z,19.58
2022-09-30T07:41:17.433Z,15.75
2022-09-30T07:43:46.988Z,16.50
2022-09-30T07:46:15.405Z,19.05
2022-09-30T07:48:50.587Z,18.30
2022-09-30T07:51:24.842Z,13.95
2022-09-30T07:53:54.835Z,14.48
2022-09-30T07:56:24.875Z,11.43
2022-09-30T07:59:00.914Z,11.98
2022-09-30T08:01:31.760Z,12.77
2022-09-30T08:04:03.981Z,13.27
2022-09-30T08:06:36.700Z,14.15
2022-09-30T08:09:09.710Z,16.20
2022-09-30T08:11:38.016Z,12.55
2022-09-30T08:14:07.288Z,11.32
2022-09-30T08:16:36.301Z,11.23
2022-09-30T08:19:05.515Z,12.18
2022-09-30T08:21:32.317Z,12.75
2022-09-30T08:24:01.924Z,9.40
2022-09-30T08:26:32.353Z,13.65
2022-09-30T08:28:59.177Z,10.75
2022-09-30T08:31:29.439Z,7.05
2022-09-30T08:33:56.480Z,7.85
2022-09-30T08:36:25.500Z,5.63
2022-09-30T08:38:52.432Z,5.97
2022-09-30T08:41:33.902Z,6.30
2022-09-30T08:44:38.062Z,6.75
2022-09-30T08:47:21.049Z,3.88
2022-09-30T08:50:12.451Z,6.63
2022-09-30T08:52:50.657Z,3.92
2022-09-30T08:55:26.661Z,4.93
2022-09-30T08:57:57.633Z,3.53
2022-09-30T09:00:25.898Z,4.68
2022-09-30T09:02:56.733Z,1.70
2022-09-30T09:05:39.074Z,5.50
2022-09-30T09:08:33.759Z,3.50
2022-09-30T09:11:10.033Z,5.40
2022-09-30T09:14:10.270Z,4.30
2022-09-30T09:17:00.298Z,2.60
2022-09-30T09:19:42.360Z,2.35
2022-09-30T09:22:12.467Z,2.78
2022-09-30T09:24:47.373Z,2.92
2022-09-30T09:27:33.243Z,2.45
2022-09-30T09:30:11.507Z,3.47
2022-09-30T09:32:41.915Z,2.58
2022-09-30T09:35:35.485Z,2.60
2022-09-30T09:38:35.852Z,2.13
2022-09-30T09:41:19.387Z,2.42
2022-09-30T09:44:11.757Z,1.75
2022-09-30T09:47:07.935Z,1.70
2022-09-30T09:49:41.551Z,2.83
2022-09-30T09:52:16.961Z,1.52
2022-09-30T09:54:52.495Z,2.15
2022-09-30T09:57:27.700Z,1.48
2022-09-30T10:00:28.740Z,2.35
2022-09-30T10:03:24.250Z,1.02
2022-09-30T10:06:14.774Z,2.80
2022-09-30T10:08:55.719Z,2.97
2022-09-30T10:11:27.506Z,5.15
2022-09-30T10:13:59.660Z,3.67
2022-09-30T10:16:37.781Z,3.58
2022-09-30T10:19:17.942Z,4.18
2022-09-30T10:21:44.635Z,5.70
2022-09-30T10:24:31.930Z,3.78
2022-09-30T10:26:58.801Z,2.28
2022-09-30T10:29:35.778Z,2.95
2022-09-30T10:32:06.587Z,3.25
2022-09-30T10:34:39.724Z,5.38
2022-09-30T10:37:20.893Z,3.80
2022-09-30T10:40:01.503Z,4.25
2022-09-30T10:42:32.241Z,4.00
2022-09-30T10:45:06.188Z,4.40
2022-09-30T10:47:36.896Z,5.13
2022-09-30T10:50:17.132Z,5.82
2022-09-30T10:53:04.576Z,5.15
2022-09-30T10:55:33.201Z,5.65
2022-09-30T10:58:27.890Z,6.05
2022-09-30T11:01:18.496Z,4.75
2022-09-30T11:04:23.132Z,3.70
2022-09-30T11:06:55.820Z,6.30
2022-09-30T11:09:37.823Z,4.80
2022-09-30T11:12:17.954Z,6.22
2022-09-30T11:14:53.826Z,6.07
2022-09-30T11:17:26.635Z,7.53
2022-09-30T11:19:59.094Z,6.85
2022-09-30T11:23:03.218Z,6.85
2022-09-30T11:25:41.835Z,6.55
2022-09-30T11:28:26.153Z,8.63
2022-09-30T11:31:08.916Z,5.72
2022-09-30T11:36:23.460Z,4.28
2022-09-30T11:39:17.964Z,4.32
2022-09-30T11:41:52.521Z,6.72
2022-09-30T11:44:28.225Z,5.20
2022-09-30T11:47:19.237Z,5.35
2022-09-30T11:50:10.262Z,5.27
2022-09-30T11:52:45.125Z,6.07
2022-09-30T11:55:38.703Z,4.85
2022-09-30T11:58:39.941Z,4.85
2022-09-30T12:01:33.274Z,6.45
2022-09-30T12:04:32.058Z,6.43
2022-09-30T12:07:05.857Z,4.22
2022-09-30T12:09:38.929Z,5.80
2022-09-30T12:12:16.093Z,7.93
2022-09-30T12:14:49.501Z,6.35
2022-09-30T12:17:34.077Z,5.22
2022-09-30T12:20:08.195Z,4.10
2022-09-30T12:22:45.056Z,4.68
2022-09-30T12:25:18.559Z,4.07
2022-09-30T12:28:36.909Z,4.78
2022-09-30T12:31:14.637Z,6.18
2022-09-30T12:33:59.738Z,6.05
2022-09-30T12:36:42.199Z,5.70
2022-09-30T12:39:33.343Z,6.43
2022-09-30T12:42:30.499Z,5.43
2022-09-30T12:45:22.392Z,5.50
2022-09-30T12:47:53.979Z,4.47
2022-09-30T12:52:52.443Z,5.65
2022-09-30T12:55:31.126Z,6.75
2022-09-30T12:58:03.357Z,3.60
2022-09-30T13:00:34.715Z,2.97
2022-09-30T13:03:20.222Z,2.65
2022-09-30T13:05:53.707Z,3.47
2022-09-30T13:08:24.917Z,3.72
2022-09-30T13:11:04.430Z,6.05
2022-09-30T13:13:33.980Z,3.65
2022-09-30T13:16:06.549Z,2.83
2022-09-30T13:18:33.415Z,4.90
2022-09-30T13:21:06.694Z,3.40
2022-09-30T13:23:40.387Z,2.33
2022-09-30T13:26:31.992Z,2.80
2022-09-30T13:29:02.606Z,4.50
2022-09-30T13:31:52.366Z,5.10
2022-09-30T13:34:28.707Z,2.88
2022-09-30T13:37:04.129Z,3.15
2022-09-30T13:39:52.190Z,2.80
2022-09-30T13:42:28.020Z,3.72
2022-09-30T13:44:59.538Z,4.75
2022-09-30T13:50:23.849Z,6.10
2022-09-30T13:52:59.144Z,3.88
2022-09-30T13:55:34.235Z,4.60
2022-09-30T13:58:40.507Z,6.03
2022-09-30T14:01:44.364Z,6.07
2022-09-30T14:04:45.926Z,8.77
2022-09-30T14:07:49.817Z,6.20
2022-09-30T14:10:25.503Z,4.43
2022-09-30T14:13:23.024Z,5.50
2022-09-30T14:15:49.906Z,3.95
2022-09-30T14:18:31.716Z,4.68
2022-09-30T14:21:31.877Z,4.65
2022-09-30T14:24:09.913Z,6.55
2022-09-30T14:26:56.009Z,6.78
2022-09-30T14:29:43.422Z,6.82
2022-09-30T14:32:18.794Z,4.70
2022-09-30T14:34:47.729Z,5.57
2022-09-30T14:37:28.898Z,6.47
2022-09-30T14:39:56.270Z,5.45
2022-09-30T14:42:30.113Z,5.40
2022-09-30T14:45:04.471Z,6.25
2022-09-30T14:47:38.902Z,6.88
2022-09-30T14:50:16.772Z,6.57
2022-09-30T14:52:45.511Z,5.93
2022-09-30T14:55:25.323Z,6.20
2022-09-30T14:57:54.128Z,5.85
2022-09-30T15:00:25.874Z,6.20
2022-09-30T15:02:53.465Z,6.05
2022-09-30T15:05:20.714Z,8.77
2022-09-30T15:07:47.544Z,6.85
2022-09-30T15:10:21.490Z,6.55
2022-09-30T15:12:50.764Z,7.35
2022-09-30T15:15:27.423Z,7.03
2022-09-30T15:17:55.575Z,7.07
2022-09-30T15:20:30.359Z,8.13
2022-09-30T15:23:01.071Z,7.10
2022-09-30T15:25:28.383Z,7.37
2022-09-30T15:27:55.408Z,7.80
2022-09-30T15:30:26.404Z,7.78
2022-09-30T15:33:01.870Z,7.68
2022-09-30T15:35:34.711Z,6.32
2022-09-30T15:38:12.469Z,6.60
2022-09-30T15:40:50.559Z,9.27
2022-09-30T15:43:33.271Z,5.25
2022-09-30T15:46:18.437Z,5.15
2022-09-30T15:48:46.954Z,5.88
2022-09-30T15:51:39.665Z,6.13
2022-09-30T15:54:28.644Z,5.35
2022-09-30T15:56:56.638Z,4.50
2022-09-30T15:59:45.105Z,5.00
2022-09-30T16:02:14.386Z,6.00
2022-09-30T16:04:43.359Z,4.93
2022-09-30T16:07:13.546Z,7.05
2022-09-30T16:09:41.987Z,4.15
2022-09-30T16:12:14.687Z,6.88
2022-09-30T16:14:57.931Z,6.93
2022-09-30T16:17:31.323Z,7.07
2022-09-30T16:20:00.842Z,4.35
2022-09-30T16:22:33.576Z,6.22
2022-09-30T16:25:33.233Z,4.20
2022-09-30T16:28:09.097Z,7.30
2022-09-30T16:30:37.711Z,5.70
2022-09-30T16:33:09.268Z,4.53
2022-09-30T16:38:07.814Z,4.20
2022-09-30T16:40:40.394Z,5.07
2022-09-30T16:43:11.608Z,4.72
2022-09-30T16:45:41.505Z,4.93
2022-09-30T16:48:18.835Z,4.97
2022-09-30T16:51:10.792Z,6.03
2022-09-30T16:53:37.594Z,4.68
2022-09-30T16:56:04.644Z,5.80
2022-09-30T16:58:33.731Z,6.28
2022-09-30T17:01:00.514Z,6.15
2022-09-30T17:03:30.962Z,2.72
2022-09-30T17:06:01.080Z,4.00
2022-09-30T17:08:27.779Z,4.20
2022-09-30T17:10:54.614Z,5.45
2022-09-30T17:13:21.383Z,6.13
2022-09-30T17:15:55.052Z,9.23
2022-09-30T17:18:27.036Z,3.78
2022-09-30T17:20:53.907Z,5.10
2022-09-30T17:23:27.416Z,5.15
2022-09-30T17:25:54.795Z,4.35
2022-09-30T17:28:22.224Z,6.60
2022-09-30T17:30:50.349Z,5.53
2022-09-30T17:33:20.014Z,5.65
2022-09-30T17:36:00.822Z,9.18
2022-09-30T17:38:28.131Z,6.80
2022-09-30T17:41:13.615Z,5.57
2022-09-30T17:43:46.231Z,8.68
2022-09-30T17:46:18.573Z,4.93
2022-09-30T17:48:46.664Z,6.97
2022-09-30T17:51:19.250Z,6.78
2022-09-30T17:53:49.323Z,5.22
2022-09-30T17:56:22.475Z,4.72
2022-09-30T17:58:55.446Z,9.43
2022-09-30T18:01:24.683Z,4.68
2022-09-30T18:03:53.522Z,6.22
2022-09-30T18:06:20.919Z,4.28
2022-09-30T18:08:51.372Z,5.45
2022-09-30T18:11:26.599Z,3.95
2022-09-30T18:13:58.570Z,5.28
2022-09-30T18:16:33.495Z,4.00
2022-09-30T18:19:02.257Z,4.05
2022-09-30T18:21:30.013Z,4.90
2022-09-30T18:24:00.481Z,6.22
2022-09-30T18:26:33.336Z,6.35
2022-09-30T18:29:06.107Z,6.18
2022-09-30T18:31:37.278Z,5.07
2022-09-30T18:34:07.125Z,3.45
2022-09-30T18:36:35.210Z,4.05
2022-09-30T18:39:02.686Z,6.60
2022-09-30T18:41:31.883Z,7.38
2022-09-30T18:44:02.826Z,8.52
2022-09-30T18:46:31.346Z,6.80
2022-09-30T18:48:58.385Z,5.63
2022-09-30T18:51:25.460Z,4.28
2022-09-30T18:53:57.728Z,5.22
2022-09-30T18:56:32.694Z,4.90
2022-09-30T18:59:01.024Z,5.32
2022-09-30T19:01:27.943Z,3.03
2022-09-30T19:03:57.807Z,4.05
2022-09-30T19:06:24.824Z,3.75
2022-09-30T19:08:51.525Z,4.43
2022-09-30T19:11:22.988Z,5.72
2022-09-30T19:13:52.029Z,4.20
2022-09-30T19:16:19.715Z,6.97
2022-09-30T19:18:46.914Z,5.10
2022-09-30T19:21:16.149Z,7.78
2022-09-30T19:23:42.884Z,6.18
2022-09-30T19:26:12.913Z,4.47
2022-09-30T19:28:42.705Z,4.88
2022-09-30T19:31:12.531Z,5.70
2022-09-30T19:33:49.267Z,4.15
2022-09-30T19:36:21.963Z,4.22
2022-09-30T19:38:49.435Z,4.22
2022-09-30T19:41:17.387Z,4.30
2022-09-30T19:43:46.564Z,4.50
2022-09-30T19:46:16.827Z,2.75
2022-09-30T19:48:46.162Z,5.80
2022-09-30T19:51:16.842Z,3.78
2022-09-30T19:54:01.334Z,5.70
2022-09-30T19:56:37.408Z,4.75
2022-09-30T19:59:05.174Z,3.95
2022-09-30T20:01:34.787Z,4.40
2022-09-30T20:04:04.887Z,4.05
2022-09-30T20:06:33.784Z,3.55
2022-09-30T20:09:07.342Z,3.38
2022-09-30T20:11:36.768Z,4.68
2022-09-30T20:14:24.295Z,6.55
2022-09-30T20:16:53.849Z,5.28
2022-09-30T20:19:22.395Z,4.93
2022-09-30T20:21:50.096Z,3.45
2022-09-30T20:24:18.194Z,4.72
2022-09-30T20:26:45.891Z,3.70
2022-09-30T20:29:15.632Z,3.03
2022-09-30T20:31:43.119Z,3.97
2022-09-30T20:34:14.487Z,7.40
2022-09-30T20:36:41.926Z,6.70
2022-09-30T20:39:09.839Z,5.43
2022-09-30T20:41:38.172Z,4.40
2022-09-30T20:44:06.736Z,8.23
2022-09-30T20:46:34.561Z,4.72
2022-09-30T20:49:02.337Z,5.47
2022-09-30T20:51:30.403Z,4.25
2022-09-30T20:53:59.017Z,3.95
2022-09-30T20:56:39.334Z,5.00
2022-09-30T20:59:18.167Z,4.65
2022-09-30T21:01:47.122Z,5.97
2022-09-30T21:04:13.841Z,4.53
2022-09-30T21:06:43.166Z,5.63
2022-09-30T21:09:12.354Z,3.88
2022-09-30T21:11:42.487Z,6.57
2022-09-30T21:14:11.734Z,5.57
2022-09-30T21:16:38.636Z,3.88
2022-09-30T21:19:05.348Z,6.13
2022-09-30T21:21:32.392Z,5.88
2022-09-30T21:23:59.966Z,5.50
2022-09-30T21:26:27.241Z,4.88
2022-09-30T21:28:54.354Z,4.68
2022-09-30T21:31:27.197Z,4.90
2022-09-30T21:33:58.576Z,5.47
2022-09-30T21:36:27.421Z,7.78
2022-09-30T21:39:01.773Z,4.35
2022-09-30T21:41:29.512Z,4.03
2022-09-30T21:43:56.332Z,6.07
2022-09-30T21:46:23.691Z,5.85
2022-09-30T21:48:50.662Z,3.92
2022-09-30T21:51:17.951Z,6.30
2022-09-30T21:53:46.779Z,4.32
2022-09-30T21:56:13.684Z,7.05
2022-09-30T21:58:42.894Z,5.82
2022-09-30T22:01:10.581Z,7.65
2022-09-30T22:03:38.390Z,8.70
2022-09-30T22:06:10.100Z,8.57
2022-09-30T22:11:34.362Z,6.13
2022-09-30T22:14:01.585Z,6.30
2022-09-30T22:16:31.245Z,5.15
2022-09-30T22:19:00.519Z,10.48
2022-09-30T22:21:31.866Z,5.53
2022-09-30T22:24:02.924Z,6.28
2022-09-30T22:26:31.488Z,8.73
2022-09-30T22:29:05.943Z,7.75
2022-09-30T22:31:35.434Z,6.60
2022-09-30T22:34:24.820Z,8.13
2022-09-30T22:37:10.619Z,6.47
2022-09-30T22:39:37.380Z,6.85
2022-09-30T22:42:04.780Z,5.70
2022-09-30T22:44:38.547Z,7.75
2022-09-30T22:47:08.477Z,6.53
2022-09-30T22:49:37.323Z,7.45
2022-09-30T22:52:04.215Z,7.53
2022-09-30T22:54:33.514Z,6.60
2022-09-30T22:57:00.600Z,7.40
2022-09-30T22:59:28.560Z,8.98
2022-09-30T23:01:56.672Z,6.88
2022-09-30T23:04:25.968Z,7.63
2022-09-30T23:06:55.715Z,6.32
2022-09-30T23:09:22.857Z,5.60
2022-09-30T23:11:53.240Z,7.88
2022-09-30T23:14:23.055Z,6.05
2022-09-30T23:16:50.733Z,8.95
2022-09-30T23:19:20.140Z,8.43
2022-09-30T23:21:50.055Z,6.32
2022-09-30T23:24:16.831Z,7.13
2022-09-30T23:26:43.619Z,6.85
2022-09-30T23:29:12.555Z,10.43
2022-09-30T23:31:39.843Z,6.32
2022-09-30T23:34:06.782Z,8.80
2022-09-30T23:36:36.568Z,10.18
2022-09-30T23:39:12.835Z,7.10
2022-09-30T23:41:40.092Z,7.45
2022-09-30T23:44:06.842Z,8.10
2022-09-30T23:46:33.682Z,8.05
2022-09-30T23:49:02.626Z,7.85
2022-09-30T23:51:29.293Z,5.78
2022-09-30T23:53:56.086Z,7.55
2022-09-30T23:56:23.958Z,6.75
2022-09-30T23:58:51.783Z,7.53
